createdAt,value
2023-04-05T00:00:34.940Z,95.40
2023-04-05T00:03:01.904Z,95.50
2023-04-05T00:05:34.268Z,95.60
2023-04-05T00:08:01.767Z,95.60
2023-04-05T00:10:30.759Z,95.60
2023-04-05T00:12:58.590Z,95.70
2023-04-05T00:15:27.372Z,95.80
2023-04-05T00:17:55.227Z,95.80
2023-04-05T00:20:22.431Z,95.80
2023-04-05T00:22:50.630Z,95.80
2023-04-05T00:25:18.617Z,95.80
2023-04-05T00:27:45.842Z,97.20
2023-04-05T00:30:20.626Z,96.70
2023-04-05T00:32:51.519Z,96.50
2023-04-05T00:35:18.613Z,96.50
2023-04-05T00:37:45.699Z,96.40
2023-04-05T00:40:12.898Z,96.50
2023-04-05T00:42:39.911Z,96.50
2023-04-05T00:45:07.685Z,96.50
2023-04-05T00:47:34.910Z,96.50
2023-04-05T00:50:04.234Z,96.50
2023-04-05T00:52:31.136Z,96.60
2023-04-05T00:54:58.763Z,96.60
2023-04-05T00:57:26.390Z,96.60
2023-04-05T00:59:53.413Z,96.70
2023-04-05T01:02:39.432Z,96.80
2023-04-05T01:05:27.321Z,96.90
2023-04-05T01:08:22.415Z,96.90
2023-04-05T01:10:57.276Z,97.10
2023-04-05T01:13:26.043Z,97.50
2023-04-05T01:15:52.944Z,97.20
2023-04-05T01:18:22.001Z,97.20
2023-04-05T01:21:39.663Z,97.20
2023-04-05T01:24:26.118Z,97.50
2023-04-05T01:27:16.462Z,97.50
2023-04-05T01:30:03.132Z,97.40
2023-04-05T01:33:28.586Z,97.30
2023-04-05T01:36:31.349Z,97.30
2023-04-05T01:38:59.505Z,97.50
2023-04-05T01:41:27.507Z,97.60
2023-04-05T01:43:54.337Z,97.90
2023-04-05T01:46:21.365Z,98.10
2023-04-05T01:48:48.233Z,98.20
2023-04-05T01:51:15.184Z,98.30
2023-04-05T01:53:42.096Z,98.20
2023-04-05T01:56:08.927Z,98.20
2023-04-05T01:58:35.841Z,98.20
2023-04-05T02:01:02.766Z,98.30
2023-04-05T02:03:29.916Z,98.40
2023-04-05T02:05:58.139Z,98.50
2023-04-05T02:08:25.234Z,98.40
2023-04-05T02:10:53.947Z,98.40
2023-04-05T02:13:23.921Z,98.50
2023-04-05T02:15:51.217Z,98.50
2023-04-05T02:18:31.350Z,98.70
2023-04-05T02:21:06.812Z,98.80
2023-04-05T02:23:35.060Z,98.80
2023-04-05T02:26:01.925Z,98.80
2023-04-05T02:28:29.194Z,98.80
2023-04-05T02:30:56.175Z,98.90
2023-04-05T02:33:23.315Z,98.90
2023-04-05T02:35:52.093Z,98.80
2023-04-05T02:38:19.001Z,99.80
2023-04-05T02:40:52.095Z,99.50
2023-04-05T02:43:18.971Z,99.40
2023-04-05T02:45:47.146Z,99.40
2023-04-05T02:48:14.109Z,99.60
2023-04-05T02:50:42.001Z,99.50
2023-04-05T02:53:09.356Z,99.50
2023-04-05T02:55:36.227Z,99.50
2023-04-05T02:58:03.097Z,99.60
2023-04-05T03:00:29.966Z,99.70
2023-04-05T03:02:56.835Z,99.80
2023-04-05T03:05:23.725Z,99.90
2023-04-05T03:07:52.145Z,99.90
2023-04-05T03:10:22.673Z,99.90
2023-04-05T03:12:51.500Z,99.90
2023-04-05T03:15:18.418Z,99.90
2023-04-05T03:17:45.932Z,99.90
2023-04-05T03:20:13.640Z,99.90
2023-04-05T03:22:41.666Z,99.90
2023-04-05T03:25:08.774Z,99.90
2023-04-05T03:27:36.730Z,99.90
2023-04-05T03:30:04.295Z,99.90
2023-04-05T03:32:31.247Z,99.90
2023-04-05T03:34:58.153Z,99.90
2023-04-05T03:37:25.041Z,99.90
2023-04-05T03:39:51.895Z,99.90
2023-04-05T03:42:18.734Z,99.90
2023-04-05T03:44:45.645Z,99.90
2023-04-05T03:47:13.249Z,99.90
2023-04-05T03:49:41.155Z,99.90
2023-04-05T03:52:08.655Z,99.90
2023-04-05T03:54:35.922Z,99.90
2023-04-05T03:57:03.232Z,99.90
2023-04-05T03:59:30.231Z,99.90
2023-04-05T04:01:57.221Z,99.90
2023-04-05T04:04:24.080Z,99.90
2023-04-05T04:06:51.568Z,99.90
2023-04-05T04:09:18.445Z,99.90
2023-04-05T04:11:45.327Z,99.90
2023-04-05T04:14:12.176Z,99.90
2023-04-05T04:16:39.074Z,99.90
2023-04-05T04:19:05.957Z,99.90
2023-04-05T04:21:33.765Z,99.90
2023-04-05T04:24:00.979Z,99.90
2023-04-05T04:26:29.128Z,99.90
2023-04-05T04:28:56.812Z,99.90
2023-04-05T04:31:23.821Z,99.90
2023-04-05T04:33:51.564Z,99.90
2023-04-05T04:36:26.603Z,99.90
2023-04-05T04:38:53.816Z,99.90
2023-04-05T04:41:22.648Z,99.90
2023-04-05T04:43:49.530Z,99.90
2023-04-05T04:46:19.110Z,99.90
2023-04-05T04:48:47.332Z,99.90
2023-04-05T04:51:14.169Z,99.90
2023-04-05T04:53:41.066Z,99.90
2023-04-05T04:56:08.836Z,99.90
2023-04-05T04:58:35.981Z,99.90
2023-04-05T05:01:11.003Z,99.90
2023-04-05T05:03:41.315Z,99.90
2023-04-05T05:06:08.669Z,99.90
2023-04-05T05:08:35.589Z,99.90
2023-04-05T05:11:02.721Z,99.90
2023-04-05T05:13:29.912Z,99.90
2023-04-05T05:15:58.043Z,99.90
2023-04-05T05:18:24.906Z,99.90
2023-04-05T05:20:52.754Z,99.90
2023-04-05T05:23:21.204Z,99.90
2023-04-05T05:25:48.171Z,99.90
2023-04-05T05:28:15.288Z,99.90
2023-04-05T05:30:42.470Z,99.90
2023-04-05T05:33:09.769Z,99.90
2023-04-05T05:35:38.141Z,99.90
2023-04-05T05:38:06.279Z,99.90
2023-04-05T05:40:34.496Z,99.90
2023-04-05T05:43:01.367Z,99.90
2023-04-05T05:45:28.388Z,99.90
2023-04-05T05:47:56.800Z,99.90
2023-04-05T05:50:23.771Z,99.90
2023-04-05T05:52:51.504Z,99.60
2023-04-05T05:55:18.410Z,99.20
2023-04-05T05:57:45.411Z,98.50
2023-04-05T06:00:13.293Z,97.70
2023-04-05T06:02:40.631Z,97.00
2023-04-05T06:05:08.948Z,96.20
2023-04-05T06:07:38.001Z,95.20
2023-04-05T06:10:06.324Z,94.20
2023-04-05T06:12:33.864Z,93.70
2023-04-05T06:15:02.251Z,92.80
2023-04-05T06:17:29.223Z,91.60
2023-04-05T06:19:56.220Z,91.20
2023-04-05T06:22:23.671Z,90.80
2023-04-05T06:24:50.515Z,89.80
2023-04-05T06:27:17.385Z,90.00
2023-04-05T06:29:44.224Z,89.50
2023-04-05T06:32:11.026Z,88.50
2023-04-05T06:34:37.854Z,88.60
2023-04-05T06:37:04.829Z,87.30
2023-04-05T06:39:31.862Z,86.00
2023-04-05T06:41:58.882Z,84.50
2023-04-05T06:44:25.887Z,82.70
2023-04-05T06:46:52.749Z,80.70
2023-04-05T06:49:19.763Z,79.20
2023-04-05T06:51:46.664Z,80.40
2023-04-05T06:54:13.624Z,79.50
2023-04-05T06:56:40.637Z,77.20
2023-04-05T06:59:07.592Z,72.60
2023-04-05T07:01:34.580Z,72.10
2023-04-05T07:04:01.601Z,73.40
2023-04-05T07:06:28.471Z,73.10
2023-04-05T07:08:55.823Z,70.60
2023-04-05T07:11:22.687Z,70.50
2023-04-05T07:13:49.577Z,73.10
2023-04-05T07:16:18.149Z,73.00
2023-04-05T07:18:45.392Z,70.00
2023-04-05T07:21:12.305Z,68.20
2023-04-05T07:23:39.154Z,69.40
2023-04-05T07:26:07.389Z,62.10
2023-04-05T07:28:35.881Z,63.80
2023-04-05T07:31:05.284Z,64.50
2023-04-05T07:33:32.328Z,64.80
2023-04-05T07:35:59.528Z,67.00
2023-04-05T07:38:30.805Z,66.20
2023-04-05T07:40:58.737Z,66.30
2023-04-05T07:43:25.924Z,63.60
2023-04-05T07:46:01.113Z,60.20
2023-04-05T07:48:28.036Z,58.10
2023-04-05T07:50:55.097Z,59.50
2023-04-05T07:53:23.241Z,60.30
2023-04-05T07:55:50.955Z,56.60
2023-04-05T07:58:17.805Z,55.40
2023-04-05T08:00:45.011Z,59.00
2023-04-05T08:03:13.272Z,58.50
2023-04-05T08:05:40.151Z,55.90
2023-04-05T08:08:08.800Z,58.00
2023-04-05T08:10:39.995Z,56.50
2023-04-05T08:13:08.240Z,59.20
2023-04-05T08:15:36.003Z,54.10
2023-04-05T08:18:03.142Z,52.90
2023-04-05T08:20:30.143Z,54.80
2023-04-05T08:22:57.061Z,51.50
2023-04-05T08:25:24.369Z,58.00
2023-04-05T08:27:51.318Z,51.60
2023-04-05T08:30:19.921Z,48.40
2023-04-05T08:32:46.843Z,53.60
2023-04-05T08:35:13.692Z,54.20
2023-04-05T08:37:40.953Z,55.50
2023-04-05T08:40:08.726Z,57.40
2023-04-05T08:42:52.406Z,52.10
2023-04-05T08:45:22.815Z,51.80
2023-04-05T08:47:53.322Z,53.20
2023-04-05T08:50:20.516Z,51.70
2023-04-05T08:52:50.928Z,52.30
2023-04-05T08:55:18.161Z,52.50
2023-04-05T08:57:53.997Z,54.60
2023-04-05T09:00:21.421Z,52.70
2023-04-05T09:02:56.632Z,51.40
2023-04-05T09:05:24.912Z,54.70
2023-04-05T09:07:52.689Z,54.00
2023-04-05T09:10:21.030Z,53.80
2023-04-05T09:12:48.744Z,49.20
2023-04-05T09:15:17.784Z,52.70
2023-04-05T09:17:44.778Z,51.30
2023-04-05T09:20:11.666Z,50.50
2023-04-05T09:22:46.340Z,51.80
2023-04-05T09:25:31.878Z,52.00
2023-04-05T09:28:00.569Z,49.70
2023-04-05T09:30:28.092Z,45.60
2023-04-05T09:32:56.765Z,49.20
2023-04-05T09:35:28.306Z,47.90
2023-04-05T09:37:59.274Z,44.00
2023-04-05T09:40:48.461Z,47.50
2023-04-05T09:43:37.019Z,49.60
2023-04-05T09:46:03.882Z,48.30
2023-04-05T09:48:50.332Z,47.00
2023-04-05T09:51:19.579Z,43.20
2023-04-05T09:54:05.722Z,44.50
2023-04-05T09:56:38.859Z,47.20
2023-04-05T09:59:12.574Z,48.70
2023-04-05T10:01:44.699Z,48.70
2023-04-05T10:04:11.693Z,48.50
2023-04-05T10:06:43.040Z,48.40
2023-04-05T10:09:11.894Z,47.10
2023-04-05T10:11:39.447Z,49.00
2023-04-05T10:14:08.715Z,49.60
2023-04-05T10:16:53.841Z,51.10
2023-04-05T10:19:32.323Z,50.30
2023-04-05T10:22:02.827Z,48.40
2023-04-05T10:24:52.662Z,45.80
2023-04-05T10:27:32.968Z,44.50
2023-04-05T10:30:08.966Z,45.70
2023-04-05T10:33:03.980Z,46.20
2023-04-05T10:35:49.739Z,44.90
2023-04-05T10:38:29.821Z,42.90
2023-04-05T10:41:23.216Z,43.40
2023-04-05T10:43:56.908Z,43.20
2023-04-05T10:46:25.255Z,42.70
2023-04-05T10:49:11.950Z,39.60
2023-04-05T10:51:39.820Z,38.70
2023-04-05T10:54:10.410Z,43.60
2023-04-05T10:56:40.802Z,43.70
2023-04-05T10:59:08.534Z,43.60
2023-04-05T11:01:36.519Z,43.10
2023-04-05T11:04:17.157Z,44.30
2023-04-05T11:06:47.944Z,43.60
2023-04-05T11:09:16.968Z,43.20
2023-04-05T11:11:46.870Z,45.20
2023-04-05T11:14:39.270Z,46.20
2023-04-05T11:17:29.035Z,49.80
2023-04-05T11:20:06.450Z,48.40
2023-04-05T11:22:33.322Z,48.80
2023-04-05T11:25:03.193Z,49.30
2023-04-05T11:27:41.105Z,48.70
2023-04-05T11:30:08.904Z,50.20
2023-04-05T11:32:44.576Z,51.40
2023-04-05T11:35:25.434Z,52.10
2023-04-05T11:38:08.410Z,52.40
2023-04-05T11:40:39.345Z,54.00
2023-04-05T11:43:10.375Z,53.90
2023-04-05T11:45:46.531Z,54.70
2023-04-05T11:48:15.304Z,55.00
2023-04-05T11:50:42.568Z,54.90
2023-04-05T11:53:22.553Z,52.70
2023-04-05T11:55:52.056Z,55.10
2023-04-05T11:58:24.590Z,57.10
2023-04-05T12:01:19.282Z,57.10
2023-04-05T12:03:57.499Z,57.20
2023-04-05T12:06:26.398Z,56.60
2023-04-05T12:08:53.543Z,58.50
2023-04-05T12:11:31.289Z,59.00
2023-04-05T12:14:01.201Z,58.80
2023-04-05T12:16:29.468Z,56.30
2023-04-05T12:18:59.336Z,57.70
2023-04-05T12:21:28.222Z,58.80
2023-04-05T12:23:55.621Z,59.40
2023-04-05T12:26:23.162Z,59.20
2023-04-05T12:28:55.982Z,58.70
2023-04-05T12:31:42.767Z,58.20
2023-04-05T12:34:12.045Z,59.10
2023-04-05T12:36:43.597Z,60.00
2023-04-05T12:39:10.722Z,55.10
2023-04-05T12:41:38.137Z,58.00
2023-04-05T12:44:31.060Z,59.90
2023-04-05T12:47:03.002Z,58.80
2023-04-05T12:49:30.257Z,57.80
2023-04-05T12:52:02.989Z,58.10
2023-04-05T12:54:31.735Z,58.20
2023-04-05T12:56:59.005Z,57.70
2023-04-05T12:59:26.033Z,58.60
2023-04-05T13:01:53.076Z,56.90
2023-04-05T13:04:20.062Z,57.50
2023-04-05T13:06:47.853Z,58.80
2023-04-05T13:09:15.141Z,58.00
2023-04-05T13:11:42.025Z,59.00
2023-04-05T13:14:09.096Z,55.00
2023-04-05T13:16:36.047Z,57.30
2023-04-05T13:19:03.087Z,58.40
2023-04-05T13:21:29.945Z,59.20
2023-04-05T13:23:56.793Z,57.30
2023-04-05T13:26:23.676Z,57.80
2023-04-05T13:28:50.778Z,58.80
2023-04-05T13:31:17.748Z,58.10
2023-04-05T13:33:44.772Z,58.20
2023-04-05T13:36:12.608Z,58.70
2023-04-05T13:38:40.224Z,57.30
2023-04-05T13:41:07.144Z,58.00
2023-04-05T13:43:34.344Z,55.50
2023-04-05T13:46:01.312Z,56.20
2023-04-05T13:48:28.188Z,56.10
2023-04-05T13:50:55.593Z,57.50
2023-04-05T13:53:22.570Z,56.00
2023-04-05T13:55:49.477Z,55.90
2023-04-05T13:58:16.443Z,58.70
2023-04-05T14:00:43.581Z,58.90
2023-04-05T14:03:10.956Z,58.30
2023-04-05T14:05:37.924Z,60.40
2023-04-05T14:08:04.881Z,60.50
2023-04-05T14:10:32.498Z,58.70
2023-04-05T14:12:59.478Z,59.70
2023-04-05T14:15:27.607Z,58.20
2023-04-05T14:17:54.617Z,57.40
2023-04-05T14:20:21.615Z,56.90
2023-04-05T14:22:48.526Z,56.90
2023-04-05T14:25:15.461Z,57.20
2023-04-05T14:27:42.693Z,56.40
2023-04-05T14:30:11.389Z,56.00
2023-04-05T14:32:38.633Z,57.20
2023-04-05T14:35:06.400Z,56.60
2023-04-05T14:37:33.322Z,55.90
2023-04-05T14:40:00.284Z,54.90
2023-04-05T14:42:37.247Z,54.10
2023-04-05T14:45:09.536Z,53.20
2023-04-05T14:47:36.388Z,54.40
2023-04-05T14:50:03.543Z,56.10
2023-04-05T14:52:30.960Z,56.70
2023-04-05T14:54:57.932Z,52.90
2023-04-05T14:57:24.990Z,55.10
2023-04-05T14:59:51.842Z,55.70
2023-04-05T15:02:19.089Z,56.60
2023-04-05T15:04:46.052Z,54.20
2023-04-05T15:07:13.249Z,55.70
2023-04-05T15:09:40.140Z,54.30
2023-04-05T15:12:07.227Z,56.20
2023-04-05T15:14:34.188Z,55.80
2023-04-05T15:17:01.209Z,56.10
2023-04-05T15:19:28.220Z,53.20
2023-04-05T15:21:55.699Z,54.40
2023-04-05T15:24:22.599Z,54.30
2023-04-05T15:26:49.567Z,55.80
2023-04-05T15:29:16.542Z,56.10
2023-04-05T15:31:43.395Z,55.30
2023-04-05T15:34:10.522Z,55.70
2023-04-05T15:36:37.417Z,55.90
2023-04-05T15:39:05.289Z,54.70
2023-04-05T15:41:34.435Z,52.90
2023-04-05T15:44:01.807Z,53.60
2023-04-05T15:46:29.677Z,51.90
2023-04-05T15:48:56.726Z,53.80
2023-04-05T15:51:23.638Z,52.80
2023-04-05T15:53:51.188Z,53.10
2023-04-05T15:56:18.324Z,54.20
2023-04-05T15:58:45.528Z,53.60
2023-04-05T16:01:13.479Z,55.00
2023-04-05T16:03:40.701Z,55.60
2023-04-05T16:06:08.128Z,55.40
2023-04-05T16:08:35.074Z,54.40
2023-04-05T16:11:02.226Z,54.80
2023-04-05T16:13:29.373Z,55.00
2023-04-05T16:15:56.645Z,55.20
2023-04-05T16:18:24.371Z,55.60
2023-04-05T16:20:51.408Z,55.90
2023-04-05T16:23:18.296Z,56.00
2023-04-05T16:25:45.125Z,55.90
2023-04-05T16:28:12.067Z,55.70
2023-04-05T16:30:39.225Z,55.70
2023-04-05T16:33:06.543Z,56.20
2023-04-05T16:35:34.419Z,56.30
2023-04-05T16:38:02.668Z,56.20
2023-04-05T16:40:30.075Z,56.30
2023-04-05T16:42:57.175Z,56.50
2023-04-05T16:45:24.140Z,56.70
2023-04-05T16:47:51.195Z,57.90
2023-04-05T16:50:18.259Z,58.00
2023-04-05T16:52:46.055Z,58.10
2023-04-05T16:55:13.169Z,58.40
2023-04-05T16:57:40.451Z,58.60
2023-04-05T17:00:09.068Z,58.90
2023-04-05T17:02:36.450Z,59.00
2023-04-05T17:05:03.814Z,59.20
2023-04-05T17:07:30.782Z,59.30
2023-04-05T17:09:58.432Z,59.50
2023-04-05T17:12:25.670Z,59.60
2023-04-05T17:14:52.683Z,59.80
2023-04-05T17:17:19.641Z,60.00
2023-04-05T17:19:46.652Z,60.30
2023-04-05T17:22:14.405Z,60.70
2023-04-05T17:24:41.400Z,60.90
2023-04-05T17:27:08.513Z,61.00
2023-04-05T17:29:35.664Z,61.20
2023-04-05T17:32:02.905Z,61.60
2023-04-05T17:34:30.129Z,61.80
2023-04-05T17:36:57.025Z,62.00
2023-04-05T17:39:23.968Z,62.10
2023-04-05T17:41:51.028Z,62.30
2023-04-05T17:44:19.058Z,62.30
2023-04-05T17:46:53.977Z,62.30
2023-04-05T17:49:24.414Z,62.60
2023-04-05T17:51:51.478Z,62.80
2023-04-05T17:54:18.610Z,62.90
2023-04-05T17:56:46.059Z,63.40
2023-04-05T17:59:13.068Z,63.60
2023-04-05T18:01:40.084Z,63.90
2023-04-05T18:04:08.815Z,64.00
2023-04-05T18:06:38.146Z,64.20
2023-04-05T18:09:05.695Z,64.30
2023-04-05T18:11:32.936Z,64.50
2023-04-05T18:13:59.971Z,64.70
2023-04-05T18:16:28.129Z,65.70
2023-04-05T18:18:55.424Z,67.20
2023-04-05T18:21:22.724Z,66.90
2023-04-05T18:23:49.718Z,67.40
2023-04-05T18:26:18.514Z,68.40
2023-04-05T18:28:49.094Z,68.70
2023-04-05T18:31:16.330Z,68.80
2023-04-05T18:33:43.358Z,69.10
2023-04-05T18:36:10.512Z,69.30
2023-04-05T18:38:37.529Z,69.50
2023-04-05T18:41:05.177Z,69.50
2023-04-05T18:43:32.272Z,70.00
2023-04-05T18:45:59.340Z,70.00
2023-04-05T18:48:26.569Z,70.50
2023-04-05T18:50:54.260Z,71.00
2023-04-05T18:53:22.168Z,71.10
2023-04-05T18:55:54.475Z,71.70
2023-04-05T18:58:21.721Z,71.80
2023-04-05T19:00:49.266Z,72.20
2023-04-05T19:03:16.725Z,72.20
2023-04-05T19:05:53.314Z,72.30
2023-04-05T19:08:20.427Z,72.50
2023-04-05T19:10:47.485Z,73.10
2023-04-05T19:13:14.610Z,73.40
2023-04-05T19:15:41.938Z,73.60
2023-04-05T19:18:09.149Z,74.00
2023-04-05T19:20:36.220Z,73.90
2023-04-05T19:23:03.326Z,74.20
2023-04-05T19:25:30.732Z,74.70
2023-04-05T19:27:57.923Z,75.00
2023-04-05T19:30:25.065Z,75.70
2023-04-05T19:32:54.916Z,75.70
2023-04-05T19:35:22.180Z,75.90
2023-04-05T19:37:49.181Z,76.30
2023-04-05T19:40:16.488Z,76.70
2023-04-05T19:42:47.588Z,77.10
2023-04-05T19:45:28.538Z,77.60
2023-04-05T19:47:58.275Z,77.50
2023-04-05T19:50:45.700Z,77.50
2023-04-05T19:53:42.832Z,77.60
2023-04-05T19:56:29.915Z,78.10
2023-04-05T19:59:02.176Z,79.80
2023-04-05T20:01:33.605Z,85.90
2023-04-05T20:04:07.566Z,84.70
2023-04-05T20:06:34.893Z,81.90
2023-04-05T20:09:08.815Z,81.50
2023-04-05T20:11:36.024Z,81.50
2023-04-05T20:14:05.530Z,84.00
2023-04-05T20:16:35.901Z,83.00
2023-04-05T20:19:07.242Z,82.50
2023-04-05T20:21:35.431Z,82.80
2023-04-05T20:24:03.103Z,83.90
2023-04-05T20:26:32.564Z,83.60
2023-04-05T20:29:02.802Z,83.50
2023-04-05T20:31:33.644Z,83.80
2023-04-05T20:34:14.854Z,84.60
2023-04-05T20:36:54.019Z,84.50
2023-04-05T20:39:23.576Z,84.40
2023-04-05T20:41:50.821Z,84.30
2023-04-05T20:44:18.265Z,84.40
2023-04-05T20:46:45.420Z,87.50
2023-04-05T20:49:12.784Z,86.40
2023-04-05T20:51:41.903Z,85.70
2023-04-05T20:54:09.759Z,85.90
2023-04-05T20:56:36.808Z,86.40
2023-04-05T20:59:04.057Z,86.40
2023-04-05T21:01:31.424Z,86.30
2023-04-05T21:03:58.565Z,86.50
2023-04-05T21:06:25.573Z,86.50
2023-04-05T21:08:52.606Z,86.80
2023-04-05T21:11:19.585Z,87.10
2023-04-05T21:13:46.692Z,87.30
2023-04-05T21:16:13.741Z,87.40
2023-04-05T21:18:40.814Z,87.80
2023-04-05T21:21:08.679Z,87.70
2023-04-05T21:23:35.775Z,88.40
2023-04-05T21:26:04.499Z,88.80
2023-04-05T21:28:31.798Z,88.30
2023-04-05T21:30:58.872Z,89.20
2023-04-05T21:33:26.014Z,89.10
2023-04-05T21:35:53.161Z,89.00
2023-04-05T21:38:20.373Z,89.20
2023-04-05T21:40:50.104Z,89.40
2023-04-05T21:43:17.654Z,89.70
2023-04-05T21:45:45.841Z,89.80
2023-04-05T21:48:12.969Z,90.00
2023-04-05T21:50:40.097Z,90.10
2023-04-05T21:53:09.276Z,90.40
2023-04-05T21:55:36.332Z,90.30
2023-04-05T21:58:03.438Z,90.40
2023-04-05T22:00:30.515Z,90.60
2023-04-05T22:02:57.594Z,90.60
2023-04-05T22:05:34.525Z,90.70
2023-04-05T22:08:05.937Z,90.70
2023-04-05T22:10:33.494Z,90.80
2023-04-05T22:13:00.556Z,90.90
2023-04-05T22:15:27.853Z,92.10
2023-04-05T22:17:54.972Z,91.60
2023-04-05T22:20:22.052Z,91.40
2023-04-05T22:22:49.059Z,91.30
2023-04-05T22:25:16.482Z,91.40
2023-04-05T22:27:43.485Z,91.40
2023-04-05T22:30:11.104Z,91.50
2023-04-05T22:32:38.289Z,91.60
2023-04-05T22:35:06.373Z,91.60
2023-04-05T22:37:36.502Z,91.60
2023-04-05T22:40:04.879Z,91.80
2023-04-05T22:42:32.133Z,91.90
2023-04-05T22:44:59.303Z,91.90
2023-04-05T22:47:26.534Z,92.00
2023-04-05T22:49:53.719Z,92.00
2023-04-05T22:52:21.030Z,92.20
2023-04-05T22:54:48.055Z,92.20
2023-04-05T22:57:15.089Z,92.20
2023-04-05T22:59:42.281Z,92.30
2023-04-05T23:02:10.032Z,92.40
2023-04-05T23:04:37.100Z,92.50
2023-04-05T23:07:04.232Z,92.60
2023-04-05T23:09:31.436Z,92.70
2023-04-05T23:11:58.421Z,92.70
2023-04-05T23:14:25.716Z,92.80
2023-04-05T23:16:52.730Z,92.80
2023-04-05T23:19:19.735Z,92.80
2023-04-05T23:21:46.703Z,92.90
2023-04-05T23:24:13.902Z,93.00
2023-04-05T23:26:40.925Z,93.10
2023-04-05T23:29:08.229Z,93.10
2023-04-05T23:31:35.518Z,93.20
2023-04-05T23:34:02.528Z,93.30
2023-04-05T23:36:29.512Z,93.40
2023-04-05T23:38:58.627Z,93.40
2023-04-05T23:41:25.714Z,93.40
2023-04-05T23:43:52.849Z,93.50
2023-04-05T23:46:19.957Z,93.60
2023-04-05T23:48:47.213Z,93.70
2023-04-05T23:51:14.202Z,93.70
2023-04-05T23:53:41.355Z,93.80
2023-04-05T23:56:08.994Z,93.80
2023-04-05T23:58:36.132Z,93.90
